createdAt,value
2017-11-09T00:01:33.227Z,98443.41
2017-11-09T00:04:06.295Z,98448.55
2017-11-09T00:06:33.822Z,98453.55
2017-11-09T00:09:06.358Z,98447.05
2017-11-09T00:11:33.882Z,98451.13
2017-11-09T00:14:01.492Z,98442.57
2017-11-09T00:16:28.988Z,98442.08
2017-11-09T00:18:56.495Z,98441.80
2017-11-09T00:21:23.998Z,98440.60
2017-11-09T00:23:51.508Z,98450.13
2017-11-09T00:26:19.016Z,98451.59
2017-11-09T00:28:46.528Z,98449.47
2017-11-09T00:31:14.050Z,98456.20
2017-11-09T00:33:41.543Z,98452.05
2017-11-09T00:36:09.042Z,98458.84
2017-11-09T00:38:36.551Z,98455.41
2017-11-09T00:41:04.067Z,98446.87
2017-11-09T00:43:31.572Z,98449.95
2017-11-09T00:45:59.070Z,98447.28
2017-11-09T00:48:26.566Z,98448.95
2017-11-09T00:50:54.080Z,98446.95
2017-11-09T00:53:21.582Z,98447.20
2017-11-09T00:55:49.081Z,98450.20
2017-11-09T00:58:16.597Z,98450.82
2017-11-09T01:00:44.102Z,98451.94
2017-11-09T01:03:11.601Z,98445.31
2017-11-09T01:05:39.092Z,98455.90
2017-11-09T01:08:06.580Z,98455.74
2017-11-09T01:10:34.494Z,98449.58
2017-11-09T01:13:01.974Z,98452.55
2017-11-09T01:15:29.482Z,98453.64
2017-11-09T01:17:56.966Z,98453.80
2017-11-09T01:20:24.446Z,98456.60
2017-11-09T01:22:51.942Z,98456.33
2017-11-09T01:25:19.421Z,98461.17
2017-11-09T01:27:46.924Z,98451.60
2017-11-09T01:30:14.432Z,98460.35
2017-11-09T01:32:41.923Z,98453.75
2017-11-09T01:35:09.436Z,98453.61
2017-11-09T01:37:36.943Z,98454.61
2017-11-09T01:40:04.448Z,98449.23
2017-11-09T01:42:31.938Z,98448.08
2017-11-09T01:44:59.447Z,98442.91
2017-11-09T01:47:26.942Z,98442.30
2017-11-09T01:49:54.451Z,98444.40
2017-11-09T01:52:21.956Z,98444.79
2017-11-09T01:54:49.467Z,98446.48
2017-11-09T01:57:16.971Z,98445.41
2017-11-09T01:59:44.487Z,98447.86
2017-11-09T02:02:11.991Z,98441.41
2017-11-09T02:04:39.528Z,98441.97
2017-11-09T02:07:07.044Z,98443.95
2017-11-09T02:09:34.574Z,98443.08
2017-11-09T02:12:02.089Z,98437.30
2017-11-09T02:14:29.604Z,98445.92
2017-11-09T02:16:57.120Z,98441.66
2017-11-09T02:19:24.619Z,98446.52
2017-11-09T02:21:52.133Z,98442.39
2017-11-09T02:24:19.636Z,98450.45
2017-11-09T02:26:47.141Z,98446.55
2017-11-09T02:29:14.660Z,98450.05
2017-11-09T02:31:42.159Z,98454.63
2017-11-09T02:34:09.671Z,98457.45
2017-11-09T02:36:37.195Z,98455.46
2017-11-09T02:39:04.703Z,98454.15
2017-11-09T02:41:32.234Z,98457.23
2017-11-09T02:43:59.754Z,98458.73
2017-11-09T02:46:27.276Z,98463.29
2017-11-09T02:48:54.779Z,98460.59
2017-11-09T02:51:22.297Z,98461.81
2017-11-09T02:53:49.814Z,98468.39
2017-11-09T02:56:17.334Z,98463.99
2017-11-09T02:58:44.854Z,98461.89
2017-11-09T03:01:12.396Z,98461.77
2017-11-09T03:03:39.914Z,98461.02
2017-11-09T03:06:08.268Z,98451.46
2017-11-09T03:08:35.808Z,98454.10
2017-11-09T03:11:03.342Z,98458.64
2017-11-09T03:13:30.856Z,98464.77
2017-11-09T03:15:58.366Z,98452.55
2017-11-09T03:18:25.875Z,98455.22
2017-11-09T03:20:53.378Z,98455.74
2017-11-09T03:23:20.867Z,98459.89
2017-11-09T03:25:48.368Z,98458.35
2017-11-09T03:28:15.896Z,98457.70
2017-11-09T03:30:43.391Z,98459.05
2017-11-09T03:33:10.908Z,98458.92
2017-11-09T03:35:38.412Z,98462.30
2017-11-09T03:38:05.926Z,98465.39
2017-11-09T03:40:33.440Z,98468.02
2017-11-09T03:43:00.963Z,98459.32
2017-11-09T03:45:28.475Z,98463.86
2017-11-09T03:47:56.002Z,98463.47
2017-11-09T03:50:23.523Z,98468.09
2017-11-09T03:52:51.041Z,98464.31
2017-11-09T03:55:18.546Z,98472.53
2017-11-09T03:57:46.089Z,98465.62
2017-11-09T04:00:13.598Z,98471.28
2017-11-09T04:02:41.122Z,98471.27
2017-11-09T04:05:08.649Z,98473.94
2017-11-09T04:07:36.164Z,98473.25
2017-11-09T04:10:04.043Z,98478.39
2017-11-09T04:12:31.559Z,98481.77
2017-11-09T04:14:59.055Z,98475.47
2017-11-09T04:17:26.582Z,98475.38
2017-11-09T04:19:54.085Z,98475.23
2017-11-09T04:22:21.592Z,98484.27
2017-11-09T04:24:49.081Z,98479.41
2017-11-09T04:27:16.611Z,98482.64
2017-11-09T04:29:44.110Z,98486.11
2017-11-09T04:32:11.620Z,98490.26
2017-11-09T04:34:39.118Z,98489.44
2017-11-09T04:37:06.615Z,98495.71
2017-11-09T04:39:34.121Z,98494.75
2017-11-09T04:42:01.624Z,98501.76
2017-11-09T04:44:29.127Z,98499.31
2017-11-09T04:46:56.659Z,98499.79
2017-11-09T04:49:24.166Z,98501.09
2017-11-09T04:51:51.693Z,98502.87
2017-11-09T04:54:19.204Z,98507.34
2017-11-09T04:56:46.703Z,98506.70
2017-11-09T04:59:14.203Z,98507.98
2017-11-09T05:01:41.704Z,98510.67
2017-11-09T05:04:09.235Z,98507.33
2017-11-09T05:06:36.736Z,98516.23
2017-11-09T05:09:04.249Z,98516.80
2017-11-09T05:11:31.804Z,98514.48
2017-11-09T05:13:59.306Z,98524.39
2017-11-09T05:16:26.795Z,98526.50
2017-11-09T05:18:54.320Z,98525.30
2017-11-09T05:21:21.832Z,98523.85
2017-11-09T05:23:49.335Z,98528.31
2017-11-09T05:26:16.850Z,98526.71
2017-11-09T05:28:44.347Z,98533.20
2017-11-09T05:31:11.839Z,98534.57
2017-11-09T05:33:39.346Z,98533.17
2017-11-09T05:36:06.845Z,98528.85
2017-11-09T05:38:34.373Z,98533.58
2017-11-09T05:41:01.866Z,98543.08
2017-11-09T05:43:29.405Z,98536.84
2017-11-09T05:45:57.015Z,98540.69
2017-11-09T05:48:24.512Z,98545.08
2017-11-09T05:50:52.021Z,98548.16
2017-11-09T05:53:19.588Z,98547.73
2017-11-09T05:55:47.193Z,98550.06
2017-11-09T05:58:14.718Z,98554.90
2017-11-09T06:00:42.261Z,98556.57
2017-11-09T06:03:09.760Z,98554.80
2017-11-09T06:05:37.266Z,98562.78
2017-11-09T06:08:04.768Z,98561.23
2017-11-09T06:10:32.267Z,98570.40
2017-11-09T06:12:59.773Z,98564.76
2017-11-09T06:15:27.305Z,98572.70
2017-11-09T06:17:54.820Z,98578.80
2017-11-09T06:20:22.319Z,98581.46
2017-11-09T06:22:49.843Z,98583.33
2017-11-09T06:25:17.505Z,98585.06
2017-11-09T06:27:45.008Z,98591.21
2017-11-09T06:30:12.522Z,98590.27
2017-11-09T06:32:40.015Z,98597.41
2017-11-09T06:35:07.547Z,98597.25
2017-11-09T06:37:35.066Z,98596.34
2017-11-09T06:40:02.578Z,98604.30
2017-11-09T06:42:30.083Z,98600.47
2017-11-09T06:44:57.593Z,98605.77
2017-11-09T06:47:25.108Z,98611.03
2017-11-09T06:49:52.633Z,98613.42
2017-11-09T06:52:20.143Z,98616.36
2017-11-09T06:54:47.640Z,98623.02
2017-11-09T06:57:15.181Z,98619.89
2017-11-09T06:59:42.692Z,98622.08
2017-11-09T07:02:10.203Z,98623.56
2017-11-09T07:04:37.711Z,98629.95
2017-11-09T07:07:05.228Z,98631.31
2017-11-09T07:09:32.727Z,98638.13
2017-11-09T07:12:00.224Z,98638.08
2017-11-09T07:14:27.722Z,98642.11
2017-11-09T07:16:55.260Z,98647.02
2017-11-09T07:19:22.780Z,98647.81
2017-11-09T07:21:50.287Z,98649.43
2017-11-09T07:24:17.791Z,98654.23
2017-11-09T07:26:45.301Z,98652.30
2017-11-09T07:29:12.798Z,98652.20
2017-11-09T07:31:40.335Z,98655.37
2017-11-09T07:34:07.837Z,98656.33
2017-11-09T07:36:35.354Z,98659.25
2017-11-09T07:39:02.987Z,98665.91
2017-11-09T07:41:30.498Z,98662.39
2017-11-09T07:43:57.999Z,98663.44
2017-11-09T07:46:25.529Z,98667.74
2017-11-09T07:48:53.055Z,98664.12
2017-11-09T07:51:20.558Z,98664.37
2017-11-09T07:53:48.052Z,98668.46
2017-11-09T07:56:15.584Z,98676.98
2017-11-09T07:58:43.081Z,98672.44
2017-11-09T08:01:10.669Z,98669.00
2017-11-09T08:03:38.189Z,98673.06
2017-11-09T08:06:05.806Z,98682.48
2017-11-09T08:08:33.372Z,98683.59
2017-11-09T08:11:00.914Z,98690.26
2017-11-09T08:13:28.431Z,98689.61
2017-11-09T08:15:55.934Z,98692.47
2017-11-09T08:18:23.448Z,98692.98
2017-11-09T08:20:50.963Z,98695.70
2017-11-09T08:23:18.488Z,98697.70
2017-11-09T08:25:48.909Z,98699.19
2017-11-09T08:28:18.734Z,98704.26
2017-11-09T08:30:50.957Z,98705.36
2017-11-09T08:33:20.118Z,98705.91
2017-11-09T08:35:47.628Z,98704.47
2017-11-09T08:38:15.122Z,98703.67
2017-11-09T08:40:42.631Z,98699.07
2017-11-09T08:43:10.138Z,98704.97
2017-11-09T08:45:37.668Z,98702.36
2017-11-09T08:48:05.197Z,98707.24
2017-11-09T08:50:32.776Z,98713.77
2017-11-09T08:53:00.315Z,98721.98
2017-11-09T08:55:27.832Z,98720.55
2017-11-09T08:57:55.356Z,98721.21
2017-11-09T09:00:22.880Z,98720.41
2017-11-09T09:02:50.415Z,98720.70
2017-11-09T09:05:17.936Z,98723.49
2017-11-09T09:07:45.443Z,98726.02
2017-11-09T09:10:12.988Z,98724.33
2017-11-09T09:12:40.507Z,98723.81
2017-11-09T09:15:08.036Z,98723.64
2017-11-09T09:17:35.558Z,98722.69
2017-11-09T09:20:03.072Z,98722.36
2017-11-09T09:22:50.464Z,98721.41
2017-11-09T09:25:23.555Z,98721.52
2017-11-09T09:30:56.116Z,98730.20
2017-11-09T09:33:28.404Z,98733.03
2017-11-09T09:36:00.029Z,98728.87
2017-11-09T09:38:36.054Z,98740.16
2017-11-09T09:41:03.555Z,98739.35
2017-11-09T09:43:31.064Z,98745.77
2017-11-09T09:45:58.578Z,98749.53
2017-11-09T09:48:26.100Z,98748.81
2017-11-09T09:50:53.644Z,98747.47
2017-11-09T09:53:21.162Z,98753.77
2017-11-09T09:55:48.677Z,98756.04
2017-11-09T09:58:16.193Z,98748.59
2017-11-09T10:00:43.714Z,98744.88
2017-11-09T10:03:11.220Z,98750.33
2017-11-09T10:05:38.717Z,98747.61
2017-11-09T10:08:06.247Z,98747.97
2017-11-09T10:10:33.739Z,98739.41
2017-11-09T10:13:01.249Z,98741.24
2017-11-09T10:15:28.756Z,98751.95
2017-11-09T10:17:56.272Z,98745.36
2017-11-09T10:20:23.768Z,98751.14
2017-11-09T10:22:51.263Z,98756.31
2017-11-09T10:25:18.748Z,98757.41
2017-11-09T10:27:46.255Z,98756.05
2017-11-09T10:30:13.831Z,98753.44
2017-11-09T10:32:41.337Z,98750.39
2017-11-09T10:35:08.848Z,98746.70
2017-11-09T10:37:36.355Z,98750.36
2017-11-09T10:40:03.879Z,98744.31
2017-11-09T10:42:31.384Z,98742.83
2017-11-09T10:44:58.875Z,98752.41
2017-11-09T10:47:26.395Z,98749.75
2017-11-09T10:49:53.894Z,98743.67
2017-11-09T10:52:21.391Z,98744.73
2017-11-09T10:54:48.899Z,98740.45
2017-11-09T10:57:16.409Z,98736.70
2017-11-09T10:59:43.935Z,98735.44
2017-11-09T11:02:11.453Z,98727.00
2017-11-09T11:04:38.965Z,98729.08
2017-11-09T11:07:06.476Z,98722.38
2017-11-09T11:09:33.971Z,98717.68
2017-11-09T11:12:01.489Z,98711.92
2017-11-09T11:14:29.004Z,98709.77
2017-11-09T11:16:56.531Z,98710.63
2017-11-09T11:19:24.050Z,98696.45
2017-11-09T11:21:51.569Z,98698.90
2017-11-09T11:24:19.062Z,98690.00
2017-11-09T11:26:46.560Z,98692.02
2017-11-09T11:29:14.059Z,98696.05
2017-11-09T11:31:41.567Z,98705.43
2017-11-09T11:34:09.103Z,98708.17
2017-11-09T11:36:36.608Z,98709.48
2017-11-09T11:39:04.168Z,98695.55
2017-11-09T11:41:31.661Z,98701.88
2017-11-09T11:43:59.188Z,98696.50
2017-11-09T11:46:26.694Z,98699.30
2017-11-09T11:48:54.195Z,98700.89
2017-11-09T11:51:21.706Z,98695.55
2017-11-09T11:53:49.234Z,98692.16
2017-11-09T11:56:16.763Z,98695.28
2017-11-09T11:58:44.267Z,98700.25
2017-11-09T12:01:11.766Z,98698.37
2017-11-09T12:03:39.296Z,98700.36
2017-11-09T12:06:06.830Z,98702.33
2017-11-09T12:08:34.338Z,98695.81
2017-11-09T12:11:01.849Z,98689.95
2017-11-09T12:13:29.365Z,98693.75
2017-11-09T12:15:56.881Z,98691.97
2017-11-09T12:18:24.373Z,98698.37
2017-11-09T12:20:51.930Z,98699.72
2017-11-09T12:23:19.445Z,98690.59
2017-11-09T12:25:46.955Z,98689.81
2017-11-09T12:28:14.457Z,98687.75
2017-11-09T12:30:41.990Z,98680.95
2017-11-09T12:33:09.515Z,98691.34
2017-11-09T12:35:37.175Z,98686.36
2017-11-09T12:38:04.717Z,98685.53
2017-11-09T12:40:32.218Z,98686.67
2017-11-09T12:42:59.752Z,98684.43
2017-11-09T12:45:27.261Z,98686.27
2017-11-09T12:47:54.762Z,98684.38
2017-11-09T12:50:22.246Z,98683.68
2017-11-09T12:52:49.763Z,98685.91
2017-11-09T12:55:17.243Z,98687.19
2017-11-09T12:57:44.739Z,98688.77
2017-11-09T13:00:12.258Z,98692.00
2017-11-09T13:02:39.779Z,98697.05
2017-11-09T13:05:07.286Z,98694.80
2017-11-09T13:07:34.794Z,98695.74
2017-11-09T13:10:02.297Z,98696.72
2017-11-09T13:12:29.827Z,98695.63
2017-11-09T13:14:57.334Z,98695.53
2017-11-09T13:17:24.854Z,98698.92
2017-11-09T13:19:52.396Z,98704.08
2017-11-09T13:22:19.910Z,98698.81
2017-11-09T13:24:47.439Z,98698.41
2017-11-09T13:27:14.960Z,98701.64
2017-11-09T13:29:42.457Z,98693.62
2017-11-09T13:32:09.957Z,98692.80
2017-11-09T13:34:38.281Z,98695.13
2017-11-09T13:37:05.798Z,98691.38
2017-11-09T13:39:33.321Z,98692.88
2017-11-09T13:42:00.853Z,98695.16
2017-11-09T13:44:28.416Z,98695.02
2017-11-09T13:46:55.906Z,98704.43
2017-11-09T13:49:23.402Z,98695.02
2017-11-09T13:51:50.916Z,98695.83
2017-11-09T13:54:18.426Z,98702.30
2017-11-09T13:56:45.960Z,98701.48
2017-11-09T13:59:13.457Z,98699.73
2017-11-09T14:01:40.973Z,98704.17
2017-11-09T14:04:08.473Z,98701.61
2017-11-09T14:06:35.970Z,98699.47
2017-11-09T14:09:03.461Z,98703.36
2017-11-09T14:11:30.993Z,98707.14
2017-11-09T14:13:58.508Z,98702.28
2017-11-09T14:16:26.013Z,98709.98
2017-11-09T14:18:53.540Z,98703.65
2017-11-09T14:21:21.056Z,98707.70
2017-11-09T14:23:48.559Z,98713.47
2017-11-09T14:26:16.080Z,98712.92
2017-11-09T14:28:43.581Z,98715.85
2017-11-09T14:31:11.072Z,98717.08
2017-11-09T14:33:38.564Z,98715.05
2017-11-09T14:36:06.090Z,98713.54
2017-11-09T14:38:37.594Z,98718.77
2017-11-09T14:41:05.133Z,98713.65
2017-11-09T14:43:32.656Z,98714.59
2017-11-09T14:46:00.207Z,98720.12
2017-11-09T14:48:27.724Z,98717.70
2017-11-09T14:50:55.238Z,98721.75
2017-11-09T14:53:22.747Z,98726.59
2017-11-09T14:55:50.281Z,98724.96
2017-11-09T14:58:17.800Z,98728.44
2017-11-09T15:00:45.331Z,98727.89
2017-11-09T15:03:12.863Z,98730.59
2017-11-09T15:05:40.414Z,98726.84
2017-11-09T15:08:07.961Z,98727.77
2017-11-09T15:10:35.483Z,98735.98
2017-11-09T15:13:03.004Z,98734.78
2017-11-09T15:15:30.531Z,98741.70
2017-11-09T15:17:58.064Z,98742.77
2017-11-09T15:20:25.564Z,98746.26
2017-11-09T15:22:53.093Z,98741.66
2017-11-09T15:25:20.603Z,98743.00
2017-11-09T15:27:48.119Z,98744.18
2017-11-09T15:30:15.650Z,98746.98
2017-11-09T15:32:43.175Z,98747.87
2017-11-09T15:35:10.731Z,98754.03
2017-11-09T15:37:38.236Z,98746.30
2017-11-09T15:40:05.802Z,98748.27
2017-11-09T15:42:33.319Z,98762.64
2017-11-09T15:45:00.841Z,98762.86
2017-11-09T15:47:28.327Z,98767.33
2017-11-09T15:49:55.856Z,98774.42
2017-11-09T15:52:23.381Z,98775.14
2017-11-09T15:54:50.909Z,98783.14
2017-11-09T15:57:18.441Z,98786.24
2017-11-09T15:59:45.963Z,98793.41
2017-11-09T16:02:13.529Z,98791.25
2017-11-09T16:04:41.040Z,98790.75
2017-11-09T16:07:14.070Z,98800.69
2017-11-09T16:09:41.574Z,98802.53
2017-11-09T16:12:09.105Z,98806.81
2017-11-09T16:14:36.668Z,98805.63
2017-11-09T16:17:04.197Z,98803.98
2017-11-09T16:19:31.714Z,98802.80
2017-11-09T16:21:59.273Z,98808.27
2017-11-09T16:24:26.808Z,98805.94
2017-11-09T16:26:57.192Z,98815.77
2017-11-09T16:29:24.734Z,98812.92
2017-11-09T16:31:52.243Z,98821.70
2017-11-09T16:34:19.764Z,98819.94
2017-11-09T16:36:47.269Z,98814.03
2017-11-09T16:39:14.767Z,98821.43
2017-11-09T16:41:42.289Z,98814.43
2017-11-09T16:44:09.803Z,98820.31
2017-11-09T16:46:37.434Z,98824.48
2017-11-09T16:49:04.969Z,98821.73
2017-11-09T16:51:32.488Z,98825.58
2017-11-09T16:54:00.798Z,98824.11
2017-11-09T16:56:28.322Z,98822.50
2017-11-09T16:58:55.823Z,98832.33
2017-11-09T17:01:23.347Z,98826.53
2017-11-09T17:03:50.871Z,98826.33
2017-11-09T17:06:18.411Z,98825.41
2017-11-09T17:08:45.921Z,98834.70
2017-11-09T17:11:13.429Z,98832.31
2017-11-09T17:13:40.946Z,98823.77
2017-11-09T17:16:08.476Z,98826.42
2017-11-09T17:18:35.976Z,98836.11
2017-11-09T17:21:03.499Z,98842.77
2017-11-09T17:23:31.042Z,98841.93
2017-11-09T17:25:58.613Z,98844.73
2017-11-09T17:28:26.131Z,98843.22
2017-11-09T17:30:53.675Z,98854.14
2017-11-09T17:33:21.197Z,98855.28
2017-11-09T17:35:48.732Z,98857.91
2017-11-09T17:38:16.263Z,98854.38
2017-11-09T17:40:43.775Z,98855.48
2017-11-09T17:43:11.473Z,98866.53
2017-11-09T17:45:38.985Z,98861.70
2017-11-09T17:48:06.677Z,98867.16
2017-11-09T17:50:34.188Z,98868.38
2017-11-09T17:53:01.920Z,98872.74
2017-11-09T17:55:29.905Z,98877.02
2017-11-09T17:57:57.638Z,98873.21
2017-11-09T18:00:25.230Z,98868.36
2017-11-09T18:02:52.744Z,98870.53
2017-11-09T18:05:20.264Z,98862.66
2017-11-09T18:07:48.279Z,98873.50
2017-11-09T18:10:15.838Z,98876.08
2017-11-09T18:12:43.690Z,98869.94
2017-11-09T18:15:11.648Z,98871.14
2017-11-09T18:17:39.180Z,98871.98
2017-11-09T18:20:06.853Z,98863.61
2017-11-09T18:22:37.312Z,98868.98
2017-11-09T18:25:05.177Z,98875.05
2017-11-09T18:27:32.940Z,98884.64
2017-11-09T18:30:00.678Z,98878.12
2017-11-09T18:32:28.233Z,98881.86
2017-11-09T18:34:55.760Z,98878.65
2017-11-09T18:37:23.559Z,98881.74
2017-11-09T18:39:51.331Z,98871.42
2017-11-09T18:42:19.200Z,98872.10
2017-11-09T18:44:47.240Z,98879.44
2017-11-09T18:47:14.895Z,98880.58
2017-11-09T18:49:42.447Z,98885.27
2017-11-09T18:52:10.003Z,98890.59
2017-11-09T18:54:37.538Z,98889.41
2017-11-09T18:57:05.291Z,98884.66
2017-11-09T18:59:32.800Z,98886.70
2017-11-09T19:02:00.319Z,98885.77
2017-11-09T19:04:28.138Z,98885.48
2017-11-09T19:06:55.818Z,98882.23
2017-11-09T19:09:30.222Z,98871.98
2017-11-09T19:11:57.779Z,98871.67
2017-11-09T19:14:25.557Z,98879.48
2017-11-09T19:16:53.130Z,98881.97
2017-11-09T19:19:20.657Z,98895.94
2017-11-09T19:21:48.472Z,98890.22
2017-11-09T19:24:15.990Z,98894.19
2017-11-09T19:26:43.492Z,98889.94
2017-11-09T19:29:11.327Z,98894.30
2017-11-09T19:31:39.296Z,98892.02
2017-11-09T19:34:06.822Z,98885.73
2017-11-09T19:36:34.823Z,98881.99
2017-11-09T19:39:02.335Z,98879.25
2017-11-09T19:41:29.853Z,98890.36
2017-11-09T19:43:57.368Z,98896.63
2017-11-09T19:46:24.881Z,98892.12
2017-11-09T19:48:52.795Z,98886.57
2017-11-09T19:51:20.700Z,98891.56
2017-11-09T19:53:48.227Z,98891.73
2017-11-09T19:56:16.224Z,98896.65
2017-11-09T19:58:45.081Z,98901.91
2017-11-09T20:01:13.690Z,98903.01
2017-11-09T20:03:41.267Z,98905.41
2017-11-09T20:06:09.651Z,98906.14
2017-11-09T20:08:37.591Z,98902.05
2017-11-09T20:11:05.338Z,98904.70
2017-11-09T20:13:32.940Z,98910.63
2017-11-09T20:16:00.921Z,98908.56
2017-11-09T20:18:29.664Z,98908.53
2017-11-09T20:20:57.468Z,98898.51
2017-11-09T20:23:26.609Z,98879.31
2017-11-09T20:25:54.506Z,98875.27
2017-11-09T20:28:23.398Z,98890.83
2017-11-09T20:30:51.749Z,98905.45
2017-11-09T20:33:19.270Z,98905.02
2017-11-09T20:35:47.818Z,98900.86
2017-11-09T20:38:17.916Z,98896.23
2017-11-09T20:40:45.496Z,98888.31
2017-11-09T20:43:15.613Z,98877.70
2017-11-09T20:45:43.677Z,98860.13
2017-11-09T20:48:11.216Z,98855.98
2017-11-09T20:50:38.759Z,98855.31
2017-11-09T20:53:06.283Z,98867.98
2017-11-09T20:55:34.232Z,98872.31
2017-11-09T20:58:01.758Z,98875.18
2017-11-09T21:00:29.957Z,98883.39
2017-11-09T21:02:57.502Z,98894.66
2017-11-09T21:05:26.222Z,98895.00
2017-11-09T21:07:53.849Z,98895.91
2017-11-09T21:10:21.510Z,98887.75
2017-11-09T21:12:49.471Z,98892.27
2017-11-09T21:15:16.992Z,98902.60
2017-11-09T21:17:44.529Z,98904.44
2017-11-09T21:20:12.348Z,98904.63
2017-11-09T21:22:40.221Z,98906.75
2017-11-09T21:25:07.746Z,98895.97
2017-11-09T21:27:35.596Z,98898.58
2017-11-09T21:30:03.147Z,98897.85
2017-11-09T21:32:31.015Z,98898.02
2017-11-09T21:34:58.853Z,98891.67
2017-11-09T21:37:26.384Z,98886.30
2017-11-09T21:39:53.955Z,98888.49
2017-11-09T21:42:21.700Z,98894.64
2017-11-09T21:44:49.213Z,98883.23
2017-11-09T21:47:16.755Z,98892.91
2017-11-09T21:49:44.289Z,98885.71
2017-11-09T21:52:12.030Z,98885.34
2017-11-09T21:54:39.535Z,98893.03
2017-11-09T21:57:07.179Z,98892.55
2017-11-09T21:59:34.699Z,98895.98
2017-11-09T22:02:02.251Z,98893.81
2017-11-09T22:04:29.811Z,98889.08
2017-11-09T22:06:57.734Z,98887.96
2017-11-09T22:09:25.518Z,98880.77
2017-11-09T22:11:53.062Z,98879.42
2017-11-09T22:14:20.563Z,98878.38
2017-11-09T22:16:48.071Z,98874.90
2017-11-09T22:19:15.567Z,98882.18
2017-11-09T22:21:43.075Z,98889.34
2017-11-09T22:24:10.584Z,98887.47
2017-11-09T22:26:38.130Z,98886.61
2017-11-09T22:29:05.698Z,98881.01
2017-11-09T22:31:33.219Z,98884.96
2017-11-09T22:34:00.730Z,98888.45
2017-11-09T22:36:28.275Z,98893.33
2017-11-09T22:38:55.886Z,98888.27
2017-11-09T22:41:23.398Z,98891.77
2017-11-09T22:43:50.979Z,98884.94
2017-11-09T22:46:18.520Z,98872.27
2017-11-09T22:48:46.034Z,98880.23
2017-11-09T22:51:13.544Z,98877.18
2017-11-09T22:53:41.060Z,98877.89
2017-11-09T22:56:08.592Z,98876.29
2017-11-09T22:58:36.090Z,98872.45
2017-11-09T23:01:03.650Z,98877.36
2017-11-09T23:03:31.160Z,98886.81
2017-11-09T23:05:58.723Z,98887.10
2017-11-09T23:08:26.239Z,98881.21
2017-11-09T23:10:53.747Z,98881.30
2017-11-09T23:13:21.623Z,98881.61
2017-11-09T23:15:49.141Z,98877.88
2017-11-09T23:18:16.690Z,98873.59
2017-11-09T23:20:44.205Z,98861.11
2017-11-09T23:23:11.710Z,98861.63
2017-11-09T23:25:39.240Z,98853.33
2017-11-09T23:28:06.750Z,98854.03
2017-11-09T23:30:34.255Z,98865.44
2017-11-09T23:33:01.770Z,98863.95
2017-11-09T23:35:29.295Z,98874.31
2017-11-09T23:37:56.828Z,98884.00
2017-11-09T23:40:24.336Z,98877.70
2017-11-09T23:42:51.848Z,98881.25
2017-11-09T23:45:19.370Z,98881.58
2017-11-09T23:47:46.916Z,98892.66
2017-11-09T23:50:14.447Z,98902.50
2017-11-09T23:52:41.955Z,98895.94
2017-11-09T23:55:09.492Z,98898.28
2017-11-09T23:57:37.013Z,98895.64
